createdAt,value
2022-10-22T00:00:10.436Z,5.60
2022-10-22T00:02:37.361Z,8.07
2022-10-22T00:05:05.450Z,4.75
2022-10-22T00:07:32.890Z,6.10
2022-10-22T00:09:59.712Z,6.53
2022-10-22T00:12:26.987Z,8.98
2022-10-22T00:14:53.927Z,9.02
2022-10-22T00:17:20.825Z,7.13
2022-10-22T00:19:47.685Z,5.68
2022-10-22T00:22:14.639Z,4.88
2022-10-22T00:24:41.814Z,4.07
2022-10-22T00:27:10.805Z,3.60
2022-10-22T00:32:05.029Z,4.18
2022-10-22T00:34:32.374Z,4.25
2022-10-22T00:36:59.562Z,5.03
2022-10-22T00:39:27.758Z,4.80
2022-10-22T00:41:56.990Z,4.70
2022-10-22T00:45:01.451Z,5.70
2022-10-22T00:47:35.478Z,4.35
2022-10-22T00:50:05.341Z,3.95
2022-10-22T00:52:32.906Z,3.92
2022-10-22T00:55:01.570Z,4.43
2022-10-22T00:57:28.827Z,5.90
2022-10-22T00:59:57.447Z,5.30
2022-10-22T01:02:24.735Z,4.43
2022-10-22T01:04:51.607Z,3.92
2022-10-22T01:07:21.559Z,6.72
2022-10-22T01:10:02.964Z,4.03
2022-10-22T01:13:07.175Z,5.38
2022-10-22T01:15:40.193Z,4.32
2022-10-22T01:18:20.320Z,6.28
2022-10-22T01:21:13.298Z,5.97
2022-10-22T01:24:17.117Z,3.95
2022-10-22T01:27:42.035Z,2.88
2022-10-22T01:30:12.062Z,4.95
2022-10-22T01:33:11.314Z,5.32
2022-10-22T01:35:41.820Z,3.30
2022-10-22T01:38:15.242Z,4.22
2022-10-22T01:40:43.366Z,5.22
2022-10-22T01:43:11.892Z,5.30
2022-10-22T01:45:51.604Z,3.47
2022-10-22T01:48:44.248Z,4.75
2022-10-22T01:51:35.567Z,6.15
2022-10-22T01:54:02.444Z,3.38
2022-10-22T01:56:37.893Z,3.55
2022-10-22T01:59:25.051Z,5.10
2022-10-22T02:01:57.647Z,6.28
2022-10-22T02:04:35.179Z,4.45
2022-10-22T02:07:07.585Z,4.55
2022-10-22T02:09:35.891Z,4.75
2022-10-22T02:12:07.258Z,7.10
2022-10-22T02:14:38.075Z,5.60
2022-10-22T02:17:08.966Z,5.45
2022-10-22T02:19:41.428Z,5.00
2022-10-22T02:22:08.663Z,4.80
2022-10-22T02:24:36.070Z,6.13
2022-10-22T02:27:32.425Z,4.95
2022-10-22T02:30:08.078Z,5.60
2022-10-22T02:32:44.955Z,5.20
2022-10-22T02:35:15.126Z,4.93
2022-10-22T02:37:43.086Z,5.03
2022-10-22T02:40:10.828Z,4.75
2022-10-22T02:42:41.086Z,5.13
2022-10-22T02:45:08.763Z,7.15
2022-10-22T02:47:35.845Z,4.97
2022-10-22T02:50:05.432Z,4.22
2022-10-22T02:52:34.814Z,6.38
2022-10-22T02:55:01.755Z,5.72
2022-10-22T02:57:28.633Z,5.93
2022-10-22T02:59:55.520Z,8.00
2022-10-22T03:02:22.363Z,5.00
2022-10-22T03:04:49.218Z,4.55
2022-10-22T03:07:16.306Z,4.95
2022-10-22T03:09:43.162Z,4.65
2022-10-22T03:12:10.047Z,4.65
2022-10-22T03:14:36.905Z,5.28
2022-10-22T03:17:03.819Z,6.72
2022-10-22T03:19:30.810Z,7.07
2022-10-22T03:22:01.227Z,4.00
2022-10-22T03:24:34.132Z,6.65
2022-10-22T03:27:01.136Z,4.25
2022-10-22T03:29:29.312Z,5.70
2022-10-22T03:31:56.253Z,5.13
2022-10-22T03:34:23.336Z,4.32
2022-10-22T03:36:51.354Z,4.43
2022-10-22T03:39:20.003Z,4.50
2022-10-22T03:41:48.371Z,4.57
2022-10-22T03:44:17.159Z,5.85
2022-10-22T03:46:44.101Z,4.57
2022-10-22T03:49:11.082Z,8.18
2022-10-22T03:51:37.981Z,7.88
2022-10-22T03:54:05.454Z,10.05
2022-10-22T03:56:32.694Z,6.40
2022-10-22T03:59:01.080Z,7.53
2022-10-22T04:01:30.088Z,6.53
2022-10-22T04:06:24.943Z,5.40
2022-10-22T04:08:51.915Z,3.42
2022-10-22T04:11:18.793Z,4.68
2022-10-22T04:13:45.741Z,4.18
2022-10-22T04:16:19.602Z,5.35
2022-10-22T04:18:47.874Z,6.22
2022-10-22T04:21:18.225Z,4.95
2022-10-22T04:23:47.146Z,14.05
2022-10-22T04:26:14.785Z,12.02
2022-10-22T04:28:42.405Z,9.30
2022-10-22T04:31:11.316Z,9.30
2022-10-22T04:33:39.051Z,8.25
2022-10-22T04:36:17.687Z,8.18
2022-10-22T04:38:46.731Z,7.47
2022-10-22T04:43:42.493Z,5.95
2022-10-22T04:46:11.127Z,8.93
2022-10-22T04:48:42.246Z,12.73
2022-10-22T04:51:11.841Z,9.90
2022-10-22T04:53:40.560Z,11.35
2022-10-22T04:56:23.636Z,9.40
2022-10-22T04:58:53.001Z,8.35
2022-10-22T05:01:22.988Z,10.25
2022-10-22T05:03:51.182Z,10.80
2022-10-22T05:06:18.889Z,9.63
2022-10-22T05:08:45.828Z,18.50
2022-10-22T05:11:19.767Z,14.82
2022-10-22T05:13:47.164Z,22.10
2022-10-22T05:16:14.863Z,23.42
2022-10-22T05:18:43.999Z,20.52
2022-10-22T05:21:13.014Z,19.30
2022-10-22T05:26:08.883Z,11.70
2022-10-22T05:28:36.301Z,10.35
2022-10-22T05:31:04.127Z,13.77
2022-10-22T05:33:33.011Z,6.53
2022-10-22T05:36:01.051Z,9.07
2022-10-22T05:38:28.141Z,10.07
2022-10-22T05:41:12.800Z,7.10
2022-10-22T05:43:40.177Z,8.23
2022-10-22T05:46:21.241Z,6.40
2022-10-22T05:48:54.367Z,4.88
2022-10-22T05:51:22.204Z,9.70
2022-10-22T05:53:55.768Z,6.43
2022-10-22T05:56:23.423Z,6.75
2022-10-22T05:58:50.453Z,7.72
2022-10-22T06:01:21.563Z,7.20
2022-10-22T06:03:49.005Z,6.85
2022-10-22T06:06:31.618Z,6.70
2022-10-22T06:09:03.440Z,4.80
2022-10-22T06:11:34.109Z,3.50
2022-10-22T06:14:02.244Z,6.25
2022-10-22T06:16:30.697Z,6.35
2022-10-22T06:19:00.766Z,6.00
2022-10-22T06:21:27.654Z,5.88
2022-10-22T06:23:57.496Z,6.82
2022-10-22T06:26:24.647Z,4.53
2022-10-22T06:28:51.562Z,4.60
2022-10-22T06:31:18.495Z,4.55
2022-10-22T06:33:45.342Z,7.30
2022-10-22T06:36:18.451Z,4.45
2022-10-22T06:38:45.753Z,4.45
2022-10-22T06:41:17.044Z,5.60
2022-10-22T06:43:46.874Z,6.90
2022-10-22T06:46:20.035Z,3.00
2022-10-22T06:48:52.507Z,3.95
2022-10-22T06:51:21.189Z,3.88
2022-10-22T06:53:48.896Z,3.65
2022-10-22T06:56:19.224Z,5.25
2022-10-22T06:58:50.226Z,4.78
2022-10-22T07:01:19.931Z,5.40
2022-10-22T07:03:47.058Z,3.10
2022-10-22T07:06:15.246Z,6.07
2022-10-22T07:08:43.236Z,5.10
2022-10-22T07:11:19.127Z,3.90
2022-10-22T07:13:46.463Z,3.30
2022-10-22T07:16:14.511Z,4.22
2022-10-22T07:18:42.553Z,4.65
2022-10-22T07:21:11.018Z,4.05
2022-10-22T07:23:38.742Z,5.40
2022-10-22T07:26:07.584Z,5.30
2022-10-22T07:28:39.969Z,3.17
2022-10-22T07:31:08.837Z,3.17
2022-10-22T07:33:37.099Z,6.15
2022-10-22T07:36:06.425Z,5.50
2022-10-22T07:38:33.655Z,5.28
2022-10-22T07:41:00.815Z,5.75
2022-10-22T07:43:27.800Z,4.30
2022-10-22T07:45:57.697Z,5.05
2022-10-22T07:48:24.822Z,3.20
2022-10-22T07:50:52.122Z,6.07
2022-10-22T07:53:19.877Z,3.38
2022-10-22T07:55:50.950Z,3.90
2022-10-22T07:58:19.436Z,5.70
2022-10-22T08:00:46.851Z,5.18
2022-10-22T08:03:15.460Z,4.20
2022-10-22T08:05:45.472Z,3.67
2022-10-22T08:08:14.037Z,5.97
2022-10-22T08:10:41.629Z,4.75
2022-10-22T08:13:08.591Z,5.15
2022-10-22T08:15:36.218Z,4.80
2022-10-22T08:18:03.117Z,5.40
2022-10-22T08:20:30.003Z,5.00
2022-10-22T08:22:56.863Z,6.25
2022-10-22T08:25:23.851Z,8.00
2022-10-22T08:27:50.728Z,4.00
2022-10-22T08:30:18.198Z,6.80
2022-10-22T08:32:45.354Z,6.88
2022-10-22T08:35:14.207Z,6.85
2022-10-22T08:37:44.046Z,6.05
2022-10-22T08:40:19.875Z,5.75
2022-10-22T08:43:17.695Z,5.55
2022-10-22T08:46:16.826Z,4.53
2022-10-22T08:48:48.949Z,8.60
2022-10-22T08:51:19.277Z,7.68
2022-10-22T08:54:05.629Z,3.35
2022-10-22T08:56:35.580Z,3.55
2022-10-22T08:59:51.815Z,6.13
2022-10-22T09:02:40.153Z,3.88
2022-10-22T09:05:44.531Z,3.80
2022-10-22T09:08:17.160Z,5.72
2022-10-22T09:11:11.282Z,7.78
2022-10-22T09:13:40.259Z,9.38
2022-10-22T09:19:12.826Z,3.58
2022-10-22T09:21:48.720Z,3.55
2022-10-22T09:24:37.288Z,3.97
2022-10-22T09:27:26.486Z,5.03
2022-10-22T09:29:53.377Z,4.38
2022-10-22T09:32:20.532Z,5.60
2022-10-22T09:34:48.944Z,7.78
2022-10-22T09:37:19.668Z,3.28
2022-10-22T09:39:52.580Z,5.13
2022-10-22T09:42:20.949Z,4.13
2022-10-22T09:44:59.659Z,5.60
2022-10-22T09:47:42.827Z,7.40
2022-10-22T09:50:43.011Z,6.43
2022-10-22T09:53:36.471Z,6.82
2022-10-22T09:56:10.329Z,6.93
2022-10-22T09:58:46.088Z,5.53
2022-10-22T10:01:28.206Z,19.40
2022-10-22T10:03:57.153Z,28.30
2022-10-22T10:08:51.047Z,14.18
2022-10-22T10:11:32.646Z,8.60
2022-10-22T10:14:36.857Z,6.80
2022-10-22T10:17:18.872Z,7.50
2022-10-22T10:20:04.586Z,6.82
2022-10-22T10:22:49.156Z,10.45
2022-10-22T10:25:51.571Z,14.32
2022-10-22T10:28:49.290Z,24.23
2022-10-22T10:31:53.889Z,27.17
2022-10-22T10:34:35.436Z,9.73
2022-10-22T10:37:32.704Z,27.23
2022-10-22T10:40:34.968Z,12.20
2022-10-22T10:43:17.211Z,9.75
2022-10-22T10:46:00.469Z,9.98
2022-10-22T10:48:40.445Z,9.00
2022-10-22T10:51:12.614Z,10.48
2022-10-22T10:54:10.091Z,7.78
2022-10-22T10:56:50.446Z,11.15
2022-10-22T10:59:17.234Z,9.75
2022-10-22T11:02:08.983Z,12.23
2022-10-22T11:05:13.074Z,8.70
2022-10-22T11:07:55.572Z,13.35
2022-10-22T11:10:45.962Z,15.48
2022-10-22T11:13:38.514Z,9.00
2022-10-22T11:16:29.867Z,6.80
2022-10-22T11:19:04.739Z,7.72
2022-10-22T11:21:49.601Z,6.60
2022-10-22T11:24:47.964Z,4.10
2022-10-22T11:27:40.016Z,4.95
2022-10-22T11:30:19.162Z,10.48
2022-10-22T11:35:28.731Z,8.52
2022-10-22T11:37:57.234Z,6.07
2022-10-22T11:40:29.899Z,5.68
2022-10-22T11:43:05.902Z,9.68
2022-10-22T11:45:40.889Z,34.90
2022-10-22T11:48:16.844Z,16.48
2022-10-22T11:51:10.874Z,20.05
2022-10-22T11:53:39.385Z,31.10
2022-10-22T11:56:13.194Z,115.47
2022-10-22T11:58:45.040Z,15.30
2022-10-22T12:01:11.902Z,7.65
2022-10-22T12:03:47.867Z,5.50
2022-10-22T12:06:19.681Z,6.88
2022-10-22T12:08:49.443Z,7.45
2022-10-22T12:11:25.919Z,21.17
2022-10-22T12:14:01.618Z,21.08
2022-10-22T12:16:54.529Z,28.10
2022-10-22T12:19:23.011Z,6.57
2022-10-22T12:21:56.067Z,181.43
2022-10-22T12:24:25.938Z,114.38
2022-10-22T12:26:53.103Z,44.10
2022-10-22T12:29:26.798Z,55.83
2022-10-22T12:31:55.005Z,16.90
2022-10-22T12:34:25.089Z,26.67
2022-10-22T12:36:53.987Z,23.83
2022-10-22T12:39:25.576Z,7.60
2022-10-22T12:41:53.528Z,4.85
2022-10-22T12:44:20.525Z,8.13
2022-10-22T12:46:52.966Z,20.60
2022-10-22T12:49:34.627Z,6.95
2022-10-22T12:52:10.936Z,9.73
2022-10-22T12:54:40.686Z,4.63
2022-10-22T12:57:14.801Z,5.50
2022-10-22T12:59:48.759Z,7.80
2022-10-22T13:02:25.277Z,4.22
2022-10-22T13:05:16.298Z,4.57
2022-10-22T13:07:47.360Z,6.85
2022-10-22T13:10:32.945Z,5.53
2022-10-22T13:13:03.244Z,8.60
2022-10-22T13:15:35.844Z,5.28
2022-10-22T13:18:23.948Z,10.50
2022-10-22T13:20:58.955Z,23.30
2022-10-22T13:23:28.281Z,56.22
2022-10-22T13:26:23.238Z,29.83
2022-10-22T13:28:55.626Z,30.10
2022-10-22T13:31:28.543Z,16.50
2022-10-22T13:34:09.727Z,12.13
2022-10-22T13:36:38.958Z,10.02
2022-10-22T13:39:08.984Z,11.73
2022-10-22T13:44:11.468Z,13.40
2022-10-22T13:46:42.901Z,9.55
2022-10-22T13:49:23.456Z,8.98
2022-10-22T13:51:51.409Z,8.73
2022-10-22T13:54:21.650Z,7.93
2022-10-22T13:56:48.838Z,7.45
2022-10-22T13:59:18.420Z,7.57
2022-10-22T14:01:48.335Z,9.82
2022-10-22T14:04:15.673Z,9.00
2022-10-22T14:06:42.778Z,7.00
2022-10-22T14:09:15.232Z,10.48
2022-10-22T14:11:43.189Z,9.27
2022-10-22T14:14:14.214Z,14.85
2022-10-22T14:16:41.497Z,17.60
2022-10-22T14:19:15.185Z,19.17
2022-10-22T14:21:42.149Z,23.27
2022-10-22T14:24:12.989Z,19.23
2022-10-22T14:26:40.757Z,22.13
2022-10-22T14:29:10.196Z,19.98
2022-10-22T14:31:43.657Z,22.73
2022-10-22T14:34:13.275Z,24.85
2022-10-22T14:36:40.257Z,25.42
2022-10-22T14:39:07.221Z,22.92
2022-10-22T14:41:34.431Z,25.23
2022-10-22T14:44:01.759Z,29.92
2022-10-22T14:46:28.666Z,30.30
2022-10-22T14:48:55.485Z,29.92
2022-10-22T14:51:23.165Z,32.90
2022-10-22T14:53:50.243Z,28.50
2022-10-22T14:56:21.464Z,28.25
2022-10-22T14:58:49.369Z,23.48
2022-10-22T15:01:16.745Z,22.38
2022-10-22T15:03:43.717Z,27.88
2022-10-22T15:06:10.665Z,29.30
2022-10-22T15:08:37.718Z,24.33
2022-10-22T15:11:07.151Z,28.90
2022-10-22T15:13:34.343Z,31.02
2022-10-22T15:16:01.449Z,31.08
2022-10-22T15:18:28.622Z,33.97
2022-10-22T15:21:00.602Z,28.77
2022-10-22T15:23:28.460Z,21.27
2022-10-22T15:25:55.669Z,26.67
2022-10-22T15:28:23.528Z,48.15
2022-10-22T15:30:59.240Z,42.38
2022-10-22T15:33:27.242Z,50.38
2022-10-22T15:35:54.276Z,42.70
2022-10-22T15:38:21.943Z,43.55
2022-10-22T15:40:48.836Z,48.85
2022-10-22T15:43:15.657Z,46.45
2022-10-22T15:45:42.534Z,51.95
2022-10-22T15:48:11.402Z,45.20
2022-10-22T15:50:40.481Z,44.25
2022-10-22T15:53:07.342Z,41.15
2022-10-22T15:55:34.279Z,39.13
2022-10-22T15:58:03.394Z,47.30
2022-10-22T16:00:31.051Z,49.15
2022-10-22T16:02:57.887Z,46.15
2022-10-22T16:05:26.877Z,42.90
2022-10-22T16:12:51.696Z,51.53
2022-10-22T16:15:18.652Z,54.72
2022-10-22T16:17:45.474Z,60.65
2022-10-22T16:22:40.355Z,55.70
2022-10-22T16:25:08.012Z,54.15
2022-10-22T16:27:35.000Z,49.42
2022-10-22T16:30:01.950Z,52.63
2022-10-22T16:32:28.821Z,48.97
2022-10-22T16:34:55.678Z,49.00
2022-10-22T16:37:22.566Z,51.90
2022-10-22T16:39:49.880Z,53.55
2022-10-22T16:42:16.884Z,83.20
2022-10-22T16:44:43.820Z,76.13
2022-10-22T16:47:10.765Z,64.00
2022-10-22T16:49:37.768Z,72.25
2022-10-22T16:52:04.797Z,71.90
2022-10-22T16:54:31.803Z,61.53
2022-10-22T16:56:58.707Z,44.80
2022-10-22T16:59:25.594Z,46.22
2022-10-22T17:01:52.692Z,44.67
2022-10-22T17:04:19.757Z,49.00
2022-10-22T17:06:46.690Z,43.90
2022-10-22T17:09:13.855Z,47.17
2022-10-22T17:11:42.681Z,45.70
2022-10-22T17:14:11.795Z,47.05
2022-10-22T17:16:38.739Z,49.58
2022-10-22T17:19:05.907Z,47.15
2022-10-22T17:21:34.029Z,47.80
2022-10-22T17:24:01.086Z,47.63
2022-10-22T17:26:28.084Z,43.42
2022-10-22T17:28:54.986Z,48.80
2022-10-22T17:31:25.798Z,49.20
2022-10-22T17:33:54.513Z,53.53
2022-10-22T17:36:22.396Z,47.35
2022-10-22T17:38:52.314Z,47.00
2022-10-22T17:41:22.025Z,43.65
2022-10-22T17:43:49.439Z,48.25
2022-10-22T17:46:24.805Z,45.65
2022-10-22T17:48:53.335Z,46.42
2022-10-22T17:51:21.548Z,43.50
2022-10-22T17:53:50.748Z,42.47
2022-10-22T17:56:23.811Z,31.25
2022-10-22T17:58:51.709Z,33.45
2022-10-22T18:01:25.393Z,31.08
2022-10-22T18:03:54.149Z,29.45
2022-10-22T18:06:22.062Z,27.63
2022-10-22T18:08:49.113Z,28.08
2022-10-22T18:11:22.238Z,25.85
2022-10-22T18:13:50.919Z,28.05
2022-10-22T18:16:19.156Z,26.23
2022-10-22T18:18:50.976Z,30.20
2022-10-22T18:21:18.295Z,28.17
2022-10-22T18:23:45.888Z,27.42
2022-10-22T18:26:13.789Z,29.67
2022-10-22T18:28:40.755Z,25.48
2022-10-22T18:31:09.315Z,32.33
2022-10-22T18:33:37.431Z,28.48
2022-10-22T18:36:06.939Z,27.20
2022-10-22T18:38:34.058Z,30.08
2022-10-22T18:41:01.040Z,28.52
2022-10-22T18:43:28.096Z,21.55
2022-10-22T18:45:55.029Z,25.90
2022-10-22T18:48:23.086Z,29.33
2022-10-22T18:50:59.839Z,23.87
2022-10-22T18:53:26.748Z,24.65
2022-10-22T18:55:53.736Z,29.88
2022-10-22T18:58:20.638Z,26.30
2022-10-22T19:00:47.499Z,34.13
2022-10-22T19:03:14.646Z,34.45
2022-10-22T19:05:49.939Z,30.85
2022-10-22T19:08:17.573Z,30.33
2022-10-22T19:10:45.989Z,31.38
2022-10-22T19:13:14.384Z,32.08
2022-10-22T19:15:41.300Z,37.45
2022-10-22T19:18:08.122Z,37.42
2022-10-22T19:20:35.628Z,42.90
2022-10-22T19:23:03.467Z,47.08
2022-10-22T19:25:30.357Z,45.35
2022-10-22T19:27:57.227Z,44.13
2022-10-22T19:30:24.400Z,46.85
2022-10-22T19:32:51.336Z,45.35
2022-10-22T19:35:18.347Z,49.85
2022-10-22T19:37:48.334Z,50.53
2022-10-22T19:40:15.719Z,41.00
2022-10-22T19:42:44.643Z,43.38
2022-10-22T19:45:11.917Z,43.15
2022-10-22T19:47:39.090Z,40.03
2022-10-22T19:50:06.431Z,36.40
2022-10-22T19:52:33.680Z,37.47
2022-10-22T19:55:00.559Z,35.08
2022-10-22T19:57:27.361Z,38.00
2022-10-22T19:59:54.216Z,32.95
2022-10-22T20:02:21.110Z,33.58
2022-10-22T20:04:49.980Z,36.67
2022-10-22T20:07:19.696Z,31.40
2022-10-22T20:09:46.579Z,34.47
2022-10-22T20:12:16.315Z,27.33
2022-10-22T20:14:43.205Z,30.02
2022-10-22T20:17:12.245Z,27.77
2022-10-22T20:19:39.140Z,25.83
2022-10-22T20:22:06.063Z,27.23
2022-10-22T20:24:33.839Z,26.00
2022-10-22T20:27:00.744Z,23.38
2022-10-22T20:29:27.611Z,25.25
2022-10-22T20:31:55.289Z,27.83
2022-10-22T20:34:22.122Z,24.40
2022-10-22T20:36:49.061Z,22.80
2022-10-22T20:39:16.640Z,23.27
2022-10-22T20:41:43.579Z,26.25
2022-10-22T20:44:15.368Z,25.42
2022-10-22T20:46:43.014Z,30.38
2022-10-22T20:49:13.586Z,23.40
2022-10-22T20:51:40.461Z,28.45
2022-10-22T20:54:08.726Z,31.55
2022-10-22T20:56:38.198Z,27.45
2022-10-22T20:59:05.861Z,25.55
2022-10-22T21:01:34.435Z,25.10
2022-10-22T21:04:01.425Z,22.88
2022-10-22T21:06:31.388Z,29.65
2022-10-22T21:08:58.436Z,30.10
2022-10-22T21:11:25.406Z,26.23
2022-10-22T21:13:52.349Z,22.58
2022-10-22T21:16:19.745Z,22.25
2022-10-22T21:18:47.321Z,21.20
2022-10-22T21:21:17.150Z,22.02
2022-10-22T21:23:44.022Z,21.40
2022-10-22T21:26:11.039Z,23.95
2022-10-22T21:28:38.339Z,24.63
2022-10-22T21:31:07.839Z,33.65
2022-10-22T21:33:39.316Z,26.13
2022-10-22T21:36:07.471Z,36.83
2022-10-22T21:38:35.139Z,38.45
2022-10-22T21:41:09.927Z,28.50
2022-10-22T21:43:38.178Z,35.25
2022-10-22T21:46:13.659Z,32.80
2022-10-22T21:48:40.650Z,33.08
2022-10-22T21:51:12.062Z,32.33
2022-10-22T21:53:39.050Z,29.60
2022-10-22T21:56:07.284Z,28.17
2022-10-22T21:58:37.456Z,25.95
2022-10-22T22:01:04.891Z,23.02
2022-10-22T22:03:32.200Z,23.30
2022-10-22T22:06:00.865Z,23.80
2022-10-22T22:08:28.247Z,20.73
2022-10-22T22:11:02.309Z,22.50
2022-10-22T22:13:29.278Z,16.08
2022-10-22T22:16:00.889Z,19.85
2022-10-22T22:18:28.016Z,15.80
2022-10-22T22:20:54.847Z,19.33
2022-10-22T22:23:23.845Z,21.33
2022-10-22T22:28:17.758Z,15.07
2022-10-22T22:30:44.618Z,15.48
2022-10-22T22:33:11.544Z,16.10
2022-10-22T22:38:07.080Z,20.00
2022-10-22T22:40:34.182Z,13.40
2022-10-22T22:43:01.017Z,17.42
2022-10-22T22:45:27.851Z,13.25
2022-10-22T22:47:54.718Z,14.88
2022-10-22T22:50:21.610Z,15.80
2022-10-22T22:52:48.492Z,15.70
2022-10-22T22:55:15.508Z,16.15
2022-10-22T22:57:42.400Z,14.80
2022-10-22T23:00:09.844Z,15.38
2022-10-22T23:02:37.041Z,17.08
2022-10-22T23:05:04.008Z,14.85
2022-10-22T23:07:30.864Z,17.08
2022-10-22T23:09:57.674Z,18.35
2022-10-22T23:12:24.545Z,13.65
2022-10-22T23:14:51.479Z,15.23
2022-10-22T23:17:19.708Z,16.13
2022-10-22T23:19:46.704Z,12.38
2022-10-22T23:22:13.551Z,19.08
2022-10-22T23:24:40.494Z,16.45
2022-10-22T23:27:07.345Z,16.77
2022-10-22T23:29:36.449Z,14.60
2022-10-22T23:32:05.423Z,16.20
2022-10-22T23:37:00.111Z,17.15
2022-10-22T23:39:28.675Z,15.43
2022-10-22T23:41:56.567Z,16.40
2022-10-22T23:44:23.873Z,16.80
2022-10-22T23:46:51.099Z,17.67
2022-10-22T23:49:18.211Z,17.00
2022-10-22T23:51:45.297Z,20.02
2022-10-22T23:54:14.867Z,18.33
2022-10-22T23:56:41.841Z,15.90
2022-10-22T23:59:09.253Z,15.98
